Time;durP1;ratioP1;P1;durP2;ratioP2;P2;SDS_P1;SDS_P2;PMS_P1;PMS_P2;Temp;Humidity;BMP_temperature;BMP_pressure;BME280_temperature;BME280_humidity;BME280_pressure;Samples;Min_cycle;Max_cycle;Signal;HPM_P1;HPM_P2
2022/10/08 00:00:31;;;;;;;;;;;;;;;22.03;60.39;99177.84;2079523;28;20016;-56
2022/10/08 00:01:33;;;;;;;;;;;;;;;22.03;60.30;99177.00;2079475;28;19970;-56
2022/10/08 00:02:35;;;;;;;;;;;;;;;22.03;60.22;99177.00;2073906;28;19972;-54
2022/10/08 00:03:37;;;;;;;;;;;;;;;22.03;60.21;99185.94;2080006;28;19925;-55
2022/10/08 00:04:39;;;;;;;;;;;;;;;22.03;60.17;99183.22;2079943;28;19929;-52
2022/10/08 00:05:39;;;;;;;;;;;;;;;22.03;60.34;99171.59;2079088;28;19929;-57
2022/10/08 00:06:41;;;;;;;;;;;;;;;22.03;60.32;99172.44;2079944;28;19994;-52
2022/10/08 00:07:43;;;;;;;;;;;;;;;22.04;60.24;99175.97;2078853;28;19933;-53
2022/10/08 00:08:48;;;;;;;;;;;;;;;22.03;60.33;99175.13;2077101;28;21419;-55
2022/10/08 00:09:48;;;;;;;;;;;;;;;22.03;60.23;99172.44;2078366;28;19926;-54
2022/10/08 00:10:52;;;;;;;;;;;;;;;22.03;60.07;99169.72;2078544;28;19935;-52
2022/10/08 00:11:53;;;;;;;;;;;;;;;22.02;60.09;99165.38;2079825;28;19933;-51
2022/10/08 00:12:54;;;;;;;;;;;;;;;22.03;60.26;99161.63;2081688;28;20019;-53
2022/10/08 00:13:55;;;;;;;;;;;;;;;22.02;60.36;99173.47;2077393;28;19929;-53
2022/10/08 00:14:56;;;;;;;;;;;;;;;22.03;60.26;99166.19;2076124;28;19924;-50
2022/10/08 00:15:58;;;;;;;;;;;;;;;22.02;60.34;99161.84;2081097;28;19939;-51
2022/10/08 00:17:00;;;;;;;;;;;;;;;22.02;60.26;99162.69;2078085;28;19977;-50
2022/10/08 00:18:01;;;;;;;;;;;;;;;22.01;60.45;99165.59;2081065;28;19933;-51
2022/10/08 00:19:05;;;;;;;;;;;;;;;22.01;60.39;99162.91;2080082;28;19986;-50
2022/10/08 00:20:05;;;;;;;;;;;;;;;22.01;60.25;99155.63;2077813;28;19929;-51
2022/10/08 00:21:08;;;;;;;;;;;;;;;22.01;60.38;99162.91;2074600;28;20020;-59
2022/10/08 00:22:09;;;;;;;;;;;;;;;22.01;60.24;99165.59;2076900;28;20517;-51
2022/10/08 00:23:10;;;;;;;;;;;;;;;22.00;60.46;99156.66;2077043;28;19929;-51
2022/10/08 00:24:12;;;;;;;;;;;;;;;22.00;60.28;99159.34;2082390;28;20010;-51
2022/10/08 00:25:13;;;;;;;;;;;;;;;22.00;60.26;99159.34;2080888;28;19925;-53
2022/10/08 00:26:15;;;;;;;;;;;;;;;22.00;60.12;99153.94;2075998;28;19933;-52
2022/10/08 00:27:16;;;;;;;;;;;;;;;22.01;60.40;99158.31;2079530;28;19932;-53
2022/10/08 00:28:17;;;;;;;;;;;;;;;22.01;60.49;99160.22;2081487;28;19928;-52
2022/10/08 00:29:19;;;;;;;;;;;;;;;22.00;60.47;99161.22;2076823;28;19932;-56
2022/10/08 00:30:20;;;;;;;;;;;;;;;21.99;60.24;99157.69;2076768;28;19952;-55
2022/10/08 00:31:22;;;;;;;;;;;;;;;22.01;60.44;99162.91;2078183;28;20354;-58
2022/10/08 00:32:25;;;;;;;;;;;;;;;22.00;60.57;99155.81;2077982;28;19928;-51
2022/10/08 00:33:26;;;;;;;;;;;;;;;21.99;60.40;99152.31;2078218;28;19989;-57
2022/10/08 00:34:28;;;;;;;;;;;;;;;22.00;60.22;99158.53;2078180;28;19937;-52
2022/10/08 00:35:29;;;;;;;;;;;;;;;22.00;60.12;99159.34;2075582;28;19967;-55
2022/10/08 00:36:31;;;;;;;;;;;;;;;21.99;60.28;99157.69;2078877;28;19996;-53
2022/10/08 00:37:32;;;;;;;;;;;;;;;22.00;60.48;99153.94;2078210;28;19936;-55
2022/10/08 00:38:33;;;;;;;;;;;;;;;21.99;60.13;99155.00;2078481;28;19925;-53
2022/10/08 00:39:34;;;;;;;;;;;;;;;21.99;60.43;99157.69;2080358;28;19929;-55
2022/10/08 00:40:41;;;;;;;;;;;;;;;21.99;60.33;99160.41;2081963;28;19932;-51
2022/10/08 00:41:42;;;;;;;;;;;;;;;22.00;60.42;99151.25;2079274;28;19929;-57
2022/10/08 00:42:44;;;;;;;;;;;;;;;22.00;60.34;99158.53;2079397;28;20047;-57
2022/10/08 00:43:46;;;;;;;;;;;;;;;22.00;60.28;99153.94;2079395;28;19940;-52
2022/10/08 00:44:50;;;;;;;;;;;;;;;21.99;60.22;99151.47;2071856;28;21059;-55
2022/10/08 00:45:50;;;;;;;;;;;;;;;21.99;60.40;99152.31;2074429;28;20490;-58
2022/10/08 00:46:53;;;;;;;;;;;;;;;21.99;60.30;99157.69;2077682;28;20004;-52
2022/10/08 00:47:56;;;;;;;;;;;;;;;21.98;60.36;99158.75;2080814;28;19925;-51
2022/10/08 00:48:59;;;;;;;;;;;;;;;21.99;60.43;99146.06;2082083;28;19936;-54
2022/10/08 00:50:03;;;;;;;;;;;;;;;21.98;60.38;99147.97;2078701;28;19929;-52
2022/10/08 00:51:04;;;;;;;;;;;;;;;21.99;60.36;99156.88;2078676;28;19987;-52
2022/10/08 00:52:05;;;;;;;;;;;;;;;21.99;60.24;99151.47;2079936;28;19979;-52
2022/10/08 00:53:07;;;;;;;;;;;;;;;21.99;60.49;99146.06;2075952;28;19933;-56
2022/10/08 00:54:09;;;;;;;;;;;;;;;21.99;60.09;99146.06;2078958;28;20019;-52
2022/10/08 00:55:10;;;;;;;;;;;;;;;21.99;60.42;99152.31;2080394;28;20012;-51
2022/10/08 00:56:12;;;;;;;;;;;;;;;21.99;60.22;99146.06;2080853;28;19925;-51
2022/10/08 00:57:13;;;;;;;;;;;;;;;21.98;60.27;99150.66;2080687;28;19936;-49
2022/10/08 00:58:16;;;;;;;;;;;;;;;21.99;60.26;99152.31;2080619;28;19925;-50
2022/10/08 00:59:17;;;;;;;;;;;;;;;21.98;60.38;99150.66;2078188;28;20288;-49
2022/10/08 01:00:20;;;;;;;;;;;;;;;21.97;60.24;99151.69;2079913;28;19990;-52
2022/10/08 01:01:20;;;;;;;;;;;;;;;21.98;60.32;99152.50;2079107;28;19932;-48
2022/10/08 01:02:22;;;;;;;;;;;;;;;21.98;60.36;99157.91;2081266;28;19943;-50
2022/10/08 01:03:23;;;;;;;;;;;;;;;21.97;60.28;99159.78;2081059;28;19929;-52
2022/10/08 01:04:25;;;;;;;;;;;;;;;21.97;60.32;99154.38;2081991;28;20016;-51
2022/10/08 01:05:29;;;;;;;;;;;;;;;21.98;60.27;99149.81;2080166;28;19994;-49
2022/10/08 01:06:37;;;;;;;;;;;;;;;21.98;60.17;99152.50;2080362;28;19932;-52
2022/10/08 01:07:43;;;;;;;;;;;;;;;21.97;60.29;99153.56;2080816;28;19975;-52
2022/10/08 01:08:51;;;;;;;;;;;;;;;21.98;60.22;99149.81;2080353;28;20023;-49
2022/10/08 01:09:54;;;;;;;;;;;;;;;21.98;60.17;99149.81;2078123;28;19928;-51
2022/10/08 01:11:00;;;;;;;;;;;;;;;21.97;60.31;99143.56;2077515;28;19952;-52
2022/10/08 01:12:04;;;;;;;;;;;;;;;21.96;60.24;99141.94;2079565;28;19928;-49
2022/10/08 01:13:13;;;;;;;;;;;;;;;21.97;60.46;99143.56;2077130;28;19929;-50
2022/10/08 01:14:22;;;;;;;;;;;;;;;21.97;60.50;99145.44;2075435;28;19936;-52
2022/10/08 01:15:28;;;;;;;;;;;;;;;21.97;60.43;99137.34;2078391;28;19925;-53
2022/10/08 01:16:34;;;;;;;;;;;;;;;21.96;60.32;99141.09;2075479;28;19929;-51
2022/10/08 01:17:41;;;;;;;;;;;;;;;21.95;60.41;99137.56;2076413;28;19937;-49
2022/10/08 01:18:49;;;;;;;;;;;;;;;21.97;60.39;99143.56;2080491;28;20085;-52
2022/10/08 01:20:11;;;;;;;;;;;;;;;21.96;60.37;99136.53;2080272;28;19929;-52
2022/10/08 01:21:13;;;;;;;;;;;;;;;21.96;60.50;99131.13;2079320;28;19929;-51
2022/10/08 01:22:22;;;;;;;;;;;;;;;21.97;60.27;99126.53;2079326;28;19983;-51
2022/10/08 01:23:28;;;;;;;;;;;;;;;21.96;60.34;99124.91;2082461;28;19998;-52
2022/10/08 01:25:52;;;;;;;;;;;;;;;21.96;60.52;99119.50;2080630;28;19929;-51
2022/10/08 01:26:56;;;;;;;;;;;;;;;21.96;60.49;99116.81;2077991;28;20058;-50
2022/10/08 01:28:02;;;;;;;;;;;;;;;21.95;60.56;99113.25;2082703;28;19928;-50
2022/10/08 01:29:06;;;;;;;;;;;;;;;21.96;60.28;99114.91;2078837;28;19929;-50
2022/10/08 01:30:11;;;;;;;;;;;;;;;21.95;60.42;99115.13;2076636;28;19979;-54
2022/10/08 01:31:17;;;;;;;;;;;;;;;21.95;60.24;99121.34;2081739;28;20009;-48
2022/10/08 01:32:21;;;;;;;;;;;;;;;21.95;60.34;99110.53;2079596;28;19929;-50
2022/10/08 01:33:24;;;;;;;;;;;;;;;21.94;60.34;99111.59;2082885;28;20368;-51
2022/10/08 01:34:30;;;;;;;;;;;;;;;21.94;60.26;99114.28;2078086;28;20496;-51
2022/10/08 01:35:32;;;;;;;;;;;;;;;21.95;60.35;99104.31;2080236;28;19929;-52
2022/10/08 01:36:37;;;;;;;;;;;;;;;21.95;60.21;99109.72;2078925;28;19929;-52
2022/10/08 01:37:40;;;;;;;;;;;;;;;21.95;60.45;99102.44;2080914;28;20414;-50
2022/10/08 01:38:44;;;;;;;;;;;;;;;21.94;60.23;99106.19;2080108;28;19925;-50
2022/10/08 01:39:45;;;;;;;;;;;;;;;21.94;60.39;99100.78;2080800;28;20256;-50
2022/10/08 01:40:48;;;;;;;;;;;;;;;21.94;60.41;99094.56;2077563;28;20326;-50
2022/10/08 01:41:50;;;;;;;;;;;;;;;21.94;60.50;99102.66;2081699;28;19931;-48
2022/10/08 01:42:52;;;;;;;;;;;;;;;21.93;60.36;99093.75;2080764;28;19929;-51
2022/10/08 01:43:58;;;;;;;;;;;;;;;21.93;60.61;99099.16;2066208;28;19948;-49
2022/10/08 01:45:01;;;;;;;;;;;;;;;21.93;60.49;99099.16;2075586;28;20502;-50
2022/10/08 01:46:04;;;;;;;;;;;;;;;21.94;60.29;99099.97;2077926;28;19925;-52
2022/10/08 01:47:08;;;;;;;;;;;;;;;21.93;60.38;99091.03;2080372;28;19925;-52
2022/10/08 01:48:11;;;;;;;;;;;;;;;21.92;60.38;99092.06;2080374;28;20498;-48
2022/10/08 01:49:15;;;;;;;;;;;;;;;21.94;60.34;99094.56;2081177;28;19936;-50
2022/10/08 01:50:18;;;;;;;;;;;;;;;21.93;60.34;99092.91;2077591;28;19929;-53
2022/10/08 01:51:22;;;;;;;;;;;;;;;21.93;60.49;99092.91;2078787;28;20401;-54
2022/10/08 01:52:24;;;;;;;;;;;;;;;21.92;60.73;99091.25;2078076;28;20075;-54
2022/10/08 01:53:29;;;;;;;;;;;;;;;21.92;60.29;99091.25;2077943;28;19929;-54
2022/10/08 01:54:32;;;;;;;;;;;;;;;21.92;60.46;99081.25;2074985;28;19929;-50
2022/10/08 01:55:35;;;;;;;;;;;;;;;21.92;60.60;99089.38;2078563;28;19983;-52
2022/10/08 01:56:37;;;;;;;;;;;;;;;21.92;60.31;99086.66;2076388;28;20017;-54
2022/10/08 01:57:40;;;;;;;;;;;;;;;21.93;60.34;99087.53;2080709;28;20007;-53
2022/10/08 01:58:43;;;;;;;;;;;;;;;21.92;60.32;99092.06;2072907;28;20440;-54
2022/10/08 01:59:47;;;;;;;;;;;;;;;21.92;60.23;99092.06;2080450;28;19932;-54
2022/10/08 02:00:48;;;;;;;;;;;;;;;21.90;60.47;99088.78;2067869;28;20034;-53
2022/10/08 02:01:54;;;;;;;;;;;;;;;21.92;60.49;99083.16;2079976;28;19936;-49
2022/10/08 02:02:55;;;;;;;;;;;;;;;21.92;60.45;99083.16;2078358;28;19928;-52
2022/10/08 02:05:16;;;;;;;;;;;;;;;21.91;60.43;99079.63;2081404;28;19929;-52
2022/10/08 02:06:17;;;;;;;;;;;;;;;21.91;60.36;99085.03;2079612;28;19929;-53
2022/10/08 02:07:19;;;;;;;;;;;;;;;21.91;60.53;99079.63;2079140;28;19925;-51
2022/10/08 02:08:20;;;;;;;;;;;;;;;21.92;60.28;99081.25;2078040;28;19924;-52
2022/10/08 02:09:22;;;;;;;;;;;;;;;21.91;60.51;99076.91;2075957;28;19971;-52
2022/10/08 02:10:25;;;;;;;;;;;;;;;21.91;60.36;99081.50;2078991;28;19929;-53
2022/10/08 02:11:25;;;;;;;;;;;;;;;21.91;60.35;99073.41;2080455;28;19933;-50
2022/10/08 02:12:27;;;;;;;;;;;;;;;21.90;60.34;99080.66;2077507;28;19933;-51
2022/10/08 02:13:29;;;;;;;;;;;;;;;21.91;60.66;99070.69;2077804;28;19929;-51
2022/10/08 02:14:32;;;;;;;;;;;;;;;21.90;60.54;99072.56;2067016;28;19929;-54
2022/10/08 02:15:37;;;;;;;;;;;;;;;21.90;60.53;99071.72;2076210;28;19925;-53
2022/10/08 02:16:42;;;;;;;;;;;;;;;21.90;60.29;99072.56;2074960;28;20835;-54
2022/10/08 02:17:51;;;;;;;;;;;;;;;21.90;60.53;99071.72;2075307;28;19925;-51
2022/10/08 02:18:57;;;;;;;;;;;;;;;21.90;60.49;99072.56;2079911;28;19970;-49
2022/10/08 02:20:02;;;;;;;;;;;;;;;21.90;60.47;99071.72;2076146;28;19925;-54
2022/10/08 02:21:06;;;;;;;;;;;;;;;21.89;60.43;99073.59;2074295;28;19929;-53
2022/10/08 02:22:07;;;;;;;;;;;;;;;21.89;60.42;99068.19;2075594;28;19929;-52
2022/10/08 02:23:12;;;;;;;;;;;;;;;21.90;60.39;99071.72;2073988;28;19928;-49
2022/10/08 02:24:17;;;;;;;;;;;;;;;21.89;60.39;99076.28;2079426;28;19925;-52
2022/10/08 02:25:21;;;;;;;;;;;;;;;21.88;60.42;99068.44;2077853;28;20744;-52
2022/10/08 02:26:26;;;;;;;;;;;;;;;21.88;60.49;99063.84;2077661;28;19929;-50
2022/10/08 02:27:33;;;;;;;;;;;;;;;21.89;60.26;99068.19;2078366;28;20473;-50
2022/10/08 02:28:40;;;;;;;;;;;;;;;21.88;60.35;99069.25;2078240;28;19935;-51
2022/10/08 02:29:42;;;;;;;;;;;;;;;21.89;60.65;99067.38;2072964;28;19937;-49
2022/10/08 02:30:48;;;;;;;;;;;;;;;21.88;60.63;99071.94;2080469;28;19932;-49
2022/10/08 02:31:51;;;;;;;;;;;;;;;21.88;60.38;99074.66;2077921;28;19933;-50
2022/10/08 02:32:56;;;;;;;;;;;;;;;21.88;60.55;99071.94;2078110;28;20370;-49
2022/10/08 02:34:02;;;;;;;;;;;;;;;21.88;60.53;99073.81;2076161;28;19940;-52
2022/10/08 02:35:08;;;;;;;;;;;;;;;21.87;60.55;99064.91;2079066;28;19929;-52
2022/10/08 02:36:10;;;;;;;;;;;;;;;21.88;60.34;99073.81;2081122;28;19928;-50
2022/10/08 02:37:15;;;;;;;;;;;;;;;21.87;60.50;99067.59;2078735;28;19929;-50
2022/10/08 02:38:19;;;;;;;;;;;;;;;21.88;60.55;99071.13;2075986;28;19966;-50
2022/10/08 02:39:21;;;;;;;;;;;;;;;21.86;60.36;99072.16;2079995;28;19932;-51
2022/10/08 02:40:21;;;;;;;;;;;;;;;21.86;60.56;99066.75;2081167;28;19932;-52
2022/10/08 02:41:26;;;;;;;;;;;;;;;21.86;60.47;99071.31;2079544;28;19928;-53
2022/10/08 02:42:27;;;;;;;;;;;;;;;21.86;60.40;99076.72;2077949;28;19933;-51
2022/10/08 02:43:31;;;;;;;;;;;;;;;21.86;60.54;99072.16;2080016;28;19932;-51
2022/10/08 02:44:34;;;;;;;;;;;;;;;21.85;60.57;99065.09;2072968;28;20368;-51
2022/10/08 02:45:38;;;;;;;;;;;;;;;21.85;60.56;99059.69;2079116;28;20471;-53
2022/10/08 02:46:42;;;;;;;;;;;;;;;21.84;60.53;99059.91;2081864;28;20512;-50
2022/10/08 02:47:46;;;;;;;;;;;;;;;21.85;60.48;99064.28;2078364;28;20046;-50
2022/10/08 02:48:50;;;;;;;;;;;;;;;21.85;60.49;99058.88;2078198;28;20391;-52
2022/10/08 02:49:54;;;;;;;;;;;;;;;21.85;60.50;99053.47;2081106;28;19929;-53
2022/10/08 02:50:56;;;;;;;;;;;;;;;21.84;60.57;99060.75;2077371;28;19929;-53
2022/10/08 02:52:00;;;;;;;;;;;;;;;21.85;60.68;99058.88;2072175;28;20030;-52
2022/10/08 02:53:01;;;;;;;;;;;;;;;21.84;60.73;99054.50;2078693;28;21107;-54
2022/10/08 02:54:03;;;;;;;;;;;;;;;21.83;60.56;99059.06;2075755;28;19936;-56
2022/10/08 02:55:10;;;;;;;;;;;;;;;21.83;60.39;99056.38;2073560;28;19933;-52
2022/10/08 02:56:14;;;;;;;;;;;;;;;21.83;60.65;99056.38;2076530;28;19928;-53
2022/10/08 02:57:18;;;;;;;;;;;;;;;21.82;60.71;99057.44;2076740;28;20935;-54
2022/10/08 02:58:20;;;;;;;;;;;;;;;21.83;60.44;99055.56;2080020;28;19929;-54
2022/10/08 02:59:21;;;;;;;;;;;;;;;21.82;60.49;99060.13;2075371;28;20325;-53
2022/10/08 03:00:23;;;;;;;;;;;;;;;21.82;60.69;99062.84;2078712;28;19972;-49
2022/10/08 03:01:29;;;;;;;;;;;;;;;21.82;60.71;99060.13;2080690;28;19940;-52
2022/10/08 03:02:35;;;;;;;;;;;;;;;21.82;60.43;99057.44;2078599;28;20020;-54
2022/10/08 03:03:37;;;;;;;;;;;;;;;21.83;60.61;99061.78;2075234;28;19933;-53
2022/10/08 03:04:41;;;;;;;;;;;;;;;21.81;60.43;99058.50;2079690;28;19928;-49
2022/10/08 03:05:42;;;;;;;;;;;;;;;21.81;60.76;99058.50;2081747;28;19925;-52
2022/10/08 03:06:44;;;;;;;;;;;;;;;21.81;60.60;99057.63;2075391;28;20012;-52
2022/10/08 03:07:46;;;;;;;;;;;;;;;21.82;60.74;99056.63;2082649;28;19986;-54
2022/10/08 03:08:49;;;;;;;;;;;;;;;21.82;60.61;99062.84;2077904;28;20047;-50
2022/10/08 03:09:50;;;;;;;;;;;;;;;21.82;60.64;99053.91;2077933;28;19929;-52
2022/10/08 03:10:52;;;;;;;;;;;;;;;21.81;60.71;99058.50;2081861;28;19924;-48
2022/10/08 03:11:53;;;;;;;;;;;;;;;21.82;60.63;99059.31;2080761;28;20086;-52
2022/10/08 03:12:59;;;;;;;;;;;;;;;21.81;60.59;99058.50;2081298;28;20362;-53
2022/10/08 03:14:01;;;;;;;;;;;;;;;21.80;60.65;99066.78;2080168;28;19940;-50
2022/10/08 03:15:03;;;;;;;;;;;;;;;21.80;60.55;99056.00;2073562;28;19929;-49
2022/10/08 03:16:06;;;;;;;;;;;;;;;21.80;60.69;99062.22;2077414;28;20026;-48
2022/10/08 03:17:08;;;;;;;;;;;;;;;21.78;60.58;99064.28;2079779;28;19974;-51
2022/10/08 03:18:11;;;;;;;;;;;;;;;21.80;60.72;99064.09;2082153;28;19970;-53
2022/10/08 03:19:14;;;;;;;;;;;;;;;21.80;60.71;99072.19;2080914;28;19925;-49
2022/10/08 03:20:14;;;;;;;;;;;;;;;21.80;60.45;99064.09;2079474;28;19986;-51
2022/10/08 03:21:16;;;;;;;;;;;;;;;21.79;60.81;99067.84;2082757;28;19995;-53
2022/10/08 03:22:17;;;;;;;;;;;;;;;21.79;60.64;99060.56;2081736;28;19929;-49
2022/10/08 03:23:19;;;;;;;;;;;;;;;21.79;60.49;99060.56;2081392;28;20379;-50
2022/10/08 03:24:19;;;;;;;;;;;;;;;21.78;60.55;99064.28;2082828;28;19931;-49
2022/10/08 03:25:21;;;;;;;;;;;;;;;21.77;60.60;99057.25;2080335;28;19924;-50
2022/10/08 03:26:22;;;;;;;;;;;;;;;21.79;60.60;99070.53;2079596;28;19932;-51
2022/10/08 03:27:23;;;;;;;;;;;;;;;21.78;60.51;99063.47;2082197;28;19977;-50
2022/10/08 03:28:24;;;;;;;;;;;;;;;21.78;60.60;99068.88;2082524;28;19928;-50
2022/10/08 03:29:25;;;;;;;;;;;;;;;21.78;60.84;99060.75;2076274;28;19929;-48
2022/10/08 03:30:26;;;;;;;;;;;;;;;21.78;60.58;99063.47;2079260;28;19932;-50
2022/10/08 03:31:27;;;;;;;;;;;;;;;21.79;60.44;99057.88;2081485;28;19932;-50
2022/10/08 03:32:28;;;;;;;;;;;;;;;21.78;60.47;99058.06;2079093;28;20019;-52
2022/10/08 03:33:30;;;;;;;;;;;;;;;21.78;60.42;99058.88;2080851;28;20391;-49
2022/10/08 03:34:32;;;;;;;;;;;;;;;21.78;60.65;99061.59;2080735;28;20062;-47
2022/10/08 03:35:32;;;;;;;;;;;;;;;21.78;60.49;99060.75;2082173;28;20582;-50
2022/10/08 03:36:34;;;;;;;;;;;;;;;21.78;60.79;99060.75;2078584;28;19932;-50
2022/10/08 03:37:34;;;;;;;;;;;;;;;21.78;60.79;99063.47;2080044;28;19925;-49
2022/10/08 03:38:36;;;;;;;;;;;;;;;21.77;60.61;99061.81;2083816;28;19978;-50
2022/10/08 03:39:36;;;;;;;;;;;;;;;21.77;60.61;99061.81;2077498;28;19929;-51
2022/10/08 03:40:38;;;;;;;;;;;;;;;21.77;60.83;99061.81;2079093;28;20604;-52
2022/10/08 03:41:38;;;;;;;;;;;;;;;21.77;60.76;99061.81;2082351;28;20627;-49
2022/10/08 03:42:40;;;;;;;;;;;;;;;21.76;60.65;99066.41;2080560;28;19933;-50
2022/10/08 03:43:40;;;;;;;;;;;;;;;21.77;60.39;99064.53;2081720;28;19929;-49
2022/10/08 03:44:42;;;;;;;;;;;;;;;21.77;60.75;99062.66;2075244;28;19929;-50
2022/10/08 03:45:47;;;;;;;;;;;;;;;21.77;60.69;99072.63;2078756;28;19925;-51
2022/10/08 03:46:49;;;;;;;;;;;;;;;21.76;60.81;99068.28;2079760;28;20886;-50
2022/10/08 03:47:50;;;;;;;;;;;;;;;21.76;60.61;99070.97;2078598;28;19933;-50
2022/10/08 03:48:53;;;;;;;;;;;;;;;21.76;60.74;99066.41;2079522;28;19982;-51
2022/10/08 03:49:54;;;;;;;;;;;;;;;21.76;60.58;99070.97;2081027;28;19929;-52
2022/10/08 03:50:56;;;;;;;;;;;;;;;21.77;60.67;99073.44;2081053;28;19979;-52
2022/10/08 03:51:57;;;;;;;;;;;;;;;21.77;60.51;99067.22;2079858;28;19989;-53
2022/10/08 03:52:58;;;;;;;;;;;;;;;21.77;60.54;99068.03;2081247;28;19986;-51
2022/10/08 03:53:58;;;;;;;;;;;;;;;21.78;60.66;99071.56;2081252;28;19929;-50
2022/10/08 03:55:00;;;;;;;;;;;;;;;21.77;60.60;99068.03;2078670;28;19926;-52
2022/10/08 03:56:01;;;;;;;;;;;;;;;21.76;60.61;99073.69;2081793;28;20453;-50
2022/10/08 03:57:03;;;;;;;;;;;;;;;21.74;60.74;99071.19;2080593;28;19932;-52
2022/10/08 03:58:03;;;;;;;;;;;;;;;21.74;60.80;99075.75;2079730;28;20550;-51
2022/10/08 03:59:05;;;;;;;;;;;;;;;21.73;60.62;99071.38;2082228;28;19929;-52
2022/10/08 04:00:05;;;;;;;;;;;;;;;;;;2074976;28;19933;-52
2022/10/08 04:01:07;;;;;;;;;;;;;;;21.74;60.68;99062.25;2082011;28;20430;-50
2022/10/08 04:02:07;;;;;;;;;;;;;;;21.74;60.61;99062.25;2080399;28;20333;-51
2022/10/08 04:03:09;;;;;;;;;;;;;;;21.73;60.92;99057.88;2079832;28;19937;-49
2022/10/08 04:04:11;;;;;;;;;;;;;;;21.75;60.75;99066.59;2080139;28;19986;-55
2022/10/08 04:05:13;;;;;;;;;;;;;;;21.74;60.60;99073.06;2077972;28;20668;-52
2022/10/08 04:06:13;;;;;;;;;;;;;;;;;;2080966;28;20578;-54
2022/10/08 04:07:15;;;;;;;;;;;;;;;21.74;60.76;99062.25;2076506;28;19928;-53
2022/10/08 04:08:15;;;;;;;;;;;;;;;21.74;60.80;99067.66;2080238;28;19925;-54
2022/10/08 04:09:16;;;;;;;;;;;;;;;;;;2079552;28;20479;-53
2022/10/08 04:10:17;;;;;;;;;;;;;;;21.74;60.66;99075.75;2079073;28;19933;-54
2022/10/08 04:11:19;;;;;;;;;;;;;;;21.74;60.53;99071.19;2080706;28;19929;-54
2022/10/08 04:12:19;;;;;;;;;;;;;;;21.74;60.78;99073.06;2077177;28;20560;-55
2022/10/08 04:13:21;;;;;;;;;;;;;;;21.74;60.59;99075.75;2076789;28;19979;-54
2022/10/08 04:14:21;;;;;;;;;;;;;;;21.74;60.82;99073.06;2080104;28;19982;-53
2022/10/08 04:15:23;;;;;;;;;;;;;;;21.72;60.65;99080.53;2073597;28;19991;-55
2022/10/08 04:16:23;;;;;;;;;;;;;;;21.74;60.58;99073.06;2080766;28;20519;-54
2022/10/08 04:17:25;;;;;;;;;;;;;;;21.73;60.71;99082.16;2080236;28;19929;-53
2022/10/08 04:18:26;;;;;;;;;;;;;;;21.73;60.67;99084.88;2078527;28;19929;-54
2022/10/08 04:19:27;;;;;;;;;;;;;;;;;;2081836;28;20586;-53
2022/10/08 04:20:30;;;;;;;;;;;;;;;21.72;60.61;99088.63;2075305;28;19929;-53
2022/10/08 04:21:32;;;;;;;;;;;;;;;21.72;60.75;99094.03;2075126;28;19997;-54
2022/10/08 04:22:33;;;;;;;;;;;;;;;21.72;60.67;99088.63;2079183;28;19954;-53
2022/10/08 04:23:35;;;;;;;;;;;;;;;21.72;60.81;99085.94;2076270;28;19933;-53
2022/10/08 04:24:37;;;;;;;;;;;;;;;;;;2078312;28;19929;-54
2022/10/08 04:25:37;;;;;;;;;;;;;;;21.71;60.79;99097.78;2080286;28;19929;-53
2022/10/08 04:26:39;;;;;;;;;;;;;;;21.71;60.81;99095.06;2081020;28;19933;-55
2022/10/08 04:27:39;;;;;;;;;;;;;;;21.71;60.81;99095.06;2080082;28;19978;-54
2022/10/08 04:28:42;;;;;;;;;;;;;;;21.70;60.66;99094.22;2081078;28;19929;-52
2022/10/08 04:29:43;;;;;;;;;;;;;;;21.71;60.78;99100.47;2077036;28;20575;-51
2022/10/08 04:30:54;;;;;;;;;;;;;;;21.71;60.71;99095.91;2078930;28;19964;-51
2022/10/08 04:31:55;;;;;;;;;;;;;;;21.70;60.74;99096.09;2078311;28;20684;-51
2022/10/08 04:32:56;;;;;;;;;;;;;;;21.70;61.04;99093.41;2074185;28;19933;-52
2022/10/08 04:33:57;;;;;;;;;;;;;;;21.70;60.88;99093.41;2077838;28;19986;-53
2022/10/08 04:34:58;;;;;;;;;;;;;;;21.68;60.74;99096.31;2079357;28;19933;-52
2022/10/08 04:36:01;;;;;;;;;;;;;;;21.67;60.89;99086.56;2080972;28;19928;-55
2022/10/08 04:37:01;;;;;;;;;;;;;;;21.68;60.81;99087.41;2079286;28;20345;-51
2022/10/08 04:38:03;;;;;;;;;;;;;;;21.67;60.68;99091.94;2082019;28;19929;-50
2022/10/08 04:39:03;;;;;;;;;;;;;;;21.68;60.85;99090.09;2081699;28;19940;-51
2022/10/08 04:40:05;;;;;;;;;;;;;;;21.67;60.67;99085.72;2080197;28;19925;-53
2022/10/08 04:41:07;;;;;;;;;;;;;;;21.66;60.95;99086.78;2080756;28;19937;-52
2022/10/08 04:42:08;;;;;;;;;;;;;;;21.67;60.85;99094.66;2073842;28;19928;-54
2022/10/08 04:43:09;;;;;;;;;;;;;;;21.67;61.03;99088.44;2080456;28;19929;-53
2022/10/08 04:44:10;;;;;;;;;;;;;;;21.67;60.59;99083.03;2078898;28;19999;-53
2022/10/08 04:45:11;;;;;;;;;;;;;;;21.68;60.92;99087.41;2076641;28;19926;-51
2022/10/08 04:46:13;;;;;;;;;;;;;;;21.67;60.64;99089.25;2076150;28;19929;-53
2022/10/08 04:47:14;;;;;;;;;;;;;;;21.67;60.57;99083.84;2077079;28;21589;-53
2022/10/08 04:48:15;;;;;;;;;;;;;;;21.67;60.82;99091.13;2079396;28;19940;-54
2022/10/08 04:49:18;;;;;;;;;;;;;;;21.68;60.80;99087.41;2076317;28;19929;-55
2022/10/08 04:50:18;;;;;;;;;;;;;;;21.67;60.56;99085.72;2080266;28;19929;-54
2022/10/08 04:51:22;;;;;;;;;;;;;;;21.67;60.77;99085.72;2074475;28;20446;-54
2022/10/08 04:52:23;;;;;;;;;;;;;;;21.67;60.77;99085.72;2076501;28;19966;-53
2022/10/08 04:53:25;;;;;;;;;;;;;;;21.66;60.74;99084.91;2080295;28;19928;-54
2022/10/08 04:54:26;;;;;;;;;;;;;;;21.67;60.57;99091.13;2081077;28;19935;-54
2022/10/08 04:55:27;;;;;;;;;;;;;;;21.68;60.68;99090.09;2076486;28;19987;-51
2022/10/08 04:56:29;;;;;;;;;;;;;;;21.67;60.82;99083.84;2078339;28;20345;-54
2022/10/08 04:57:31;;;;;;;;;;;;;;;21.66;60.65;99084.09;2079398;28;19929;-53
2022/10/08 04:58:32;;;;;;;;;;;;;;;21.66;60.65;99084.91;2079757;28;19932;-52
2022/10/08 04:59:33;;;;;;;;;;;;;;;21.65;60.92;99083.25;2074127;28;19925;-53
2022/10/08 05:00:34;;;;;;;;;;;;;;;21.66;60.86;99084.09;2073728;28;19939;-51
2022/10/08 05:01:35;;;;;;;;;;;;;;;21.66;60.73;99084.09;2081180;28;20419;-54
2022/10/08 05:02:36;;;;;;;;;;;;;;;21.67;60.74;99083.03;2078823;28;20279;-54
2022/10/08 05:03:38;;;;;;;;;;;;;;;21.65;60.67;99077.84;2076104;28;19978;-53
2022/10/08 05:04:38;;;;;;;;;;;;;;;21.66;60.76;99081.38;2077515;28;19925;-52
2022/10/08 05:05:40;;;;;;;;;;;;;;;21.66;60.61;99089.47;2081178;28;19933;-54
2022/10/08 05:06:42;;;;;;;;;;;;;;;21.64;60.73;99084.28;2079115;28;19932;-56
2022/10/08 05:07:43;;;;;;;;;;;;;;;21.65;60.82;99083.25;2078989;28;19929;-53
2022/10/08 05:08:45;;;;;;;;;;;;;;;21.64;60.83;99081.59;2081360;28;19924;-53
2022/10/08 05:09:46;;;;;;;;;;;;;;;21.65;60.72;99080.56;2077147;28;20353;-53
2022/10/08 05:10:48;;;;;;;;;;;;;;;21.63;61.00;99067.25;2078132;28;19925;-53
2022/10/08 05:11:48;;;;;;;;;;;;;;;21.63;60.75;99072.66;2081328;28;20023;-54
2022/10/08 05:12:50;;;;;;;;;;;;;;;21.63;60.90;99072.66;2080103;28;19936;-52
2022/10/08 05:13:51;;;;;;;;;;;;;;;21.63;60.77;99066.44;2076598;28;19940;-53
2022/10/08 05:14:52;;;;;;;;;;;;;;;21.63;60.68;99063.75;2077092;28;19951;-53
2022/10/08 05:15:53;;;;;;;;;;;;;;;21.63;60.76;99066.44;2079505;28;20303;-51
2022/10/08 05:16:54;;;;;;;;;;;;;;;21.62;61.00;99065.63;2079371;28;19987;-52
2022/10/08 05:17:55;;;;;;;;;;;;;;;21.62;60.80;99059.41;2082146;28;19974;-52
2022/10/08 05:18:57;;;;;;;;;;;;;;;21.64;60.76;99070.78;2079959;28;19937;-53
2022/10/08 05:19:58;;;;;;;;;;;;;;;21.63;60.94;99069.13;2076432;28;19939;-54
2022/10/08 05:21:02;;;;;;;;;;;;;;;21.65;60.55;99069.75;2074549;28;19975;-55
2022/10/08 05:22:04;;;;;;;;;;;;;;;21.64;60.81;99076.19;2074882;28;19925;-53
2022/10/08 05:23:05;;;;;;;;;;;;;;;21.63;60.88;99071.84;2075302;28;20020;-52
2022/10/08 05:24:07;;;;;;;;;;;;;;;21.63;60.53;99078.06;2073890;28;20391;-56
2022/10/08 05:25:09;;;;;;;;;;;;;;;21.62;60.79;99078.28;2078382;28;20580;-54
2022/10/08 05:26:10;;;;;;;;;;;;;;;21.63;60.74;99069.13;2080739;28;19925;-49
2022/10/08 05:27:11;;;;;;;;;;;;;;;21.62;60.72;99079.13;2078630;28;19935;-50
2022/10/08 05:28:12;;;;;;;;;;;;;;;21.64;60.76;99079.72;2076665;28;19933;-52
2022/10/08 05:29:13;;;;;;;;;;;;;;;21.65;60.47;99083.25;2080040;28;19979;-53